sensor_id;sensor_type;location;lat;lon;timestamp;pressure;altitude;pressure_sealevel;temperature;humidity
20628;BME280;10473;42.734;24.258;2022-08-20T00:00:38;91726.91;;;23.39;55.06
20628;BME280;10473;42.734;24.258;2022-08-20T00:03:08;91726.44;;;23.31;55.35
20628;BME280;10473;42.734;24.258;2022-08-20T00:05:41;91728.56;;;22.97;56.05
20628;BME280;10473;42.734;24.258;2022-08-20T00:08:09;91729.56;;;22.51;57.81
20628;BME280;10473;42.734;24.258;2022-08-20T00:10:43;91725.53;;;22.86;57.11
20628;BME280;10473;42.734;24.258;2022-08-20T00:13:16;91731.09;;;22.91;56.93
20628;BME280;10473;42.734;24.258;2022-08-20T00:15:44;91724.69;;;22.98;56.48
20628;BME280;10473;42.734;24.258;2022-08-20T00:18:13;91732.59;;;22.92;56.48
20628;BME280;10473;42.734;24.258;2022-08-20T00:20:45;91734.31;;;22.68;57.43
20628;BME280;10473;42.734;24.258;2022-08-20T00:23:14;91734.38;;;22.04;59.49
20628;BME280;10473;42.734;24.258;2022-08-20T00:25:42;91733.34;;;22.32;58.43
20628;BME280;10473;42.734;24.258;2022-08-20T00:30:40;91733.09;;;22.39;58.66
20628;BME280;10473;42.734;24.258;2022-08-20T00:33:11;91725.56;;;22.55;58.00
20628;BME280;10473;42.734;24.258;2022-08-20T00:35:41;91726.34;;;22.65;58.11
20628;BME280;10473;42.734;24.258;2022-08-20T00:38:10;91721.25;;;22.67;57.57
20628;BME280;10473;42.734;24.258;2022-08-20T00:40:40;91719.59;;;22.69;57.04
20628;BME280;10473;42.734;24.258;2022-08-20T00:43:31;91716.31;;;22.74;56.79
20628;BME280;10473;42.734;24.258;2022-08-20T00:46:06;91710.91;;;22.74;56.99
20628;BME280;10473;42.734;24.258;2022-08-20T00:48:37;91703.28;;;22.73;56.92
20628;BME280;10473;42.734;24.258;2022-08-20T00:51:09;91705.66;;;22.71;57.68
20628;BME280;10473;42.734;24.258;2022-08-20T00:53:38;91696.09;;;22.79;56.97
20628;BME280;10473;42.734;24.258;2022-08-20T00:56:07;91700.47;;;22.85;57.20
20628;BME280;10473;42.734;24.258;2022-08-20T00:58:38;91693.53;;;22.84;56.71
20628;BME280;10473;42.734;24.258;2022-08-20T01:01:09;91695.06;;;22.85;56.83
20628;BME280;10473;42.734;24.258;2022-08-20T01:03:38;91698.13;;;22.66;57.26
20628;BME280;10473;42.734;24.258;2022-08-20T01:06:08;91680.72;;;22.67;57.50
20628;BME280;10473;42.734;24.258;2022-08-20T01:08:38;91687.88;;;22.52;57.76
20628;BME280;10473;42.734;24.258;2022-08-20T01:11:07;91672.25;;;22.47;57.96
20628;BME280;10473;42.734;24.258;2022-08-20T01:13:38;91666.88;;;22.56;57.37
20628;BME280;10473;42.734;24.258;2022-08-20T01:16:16;91680.03;;;22.45;57.66
20628;BME280;10473;42.734;24.258;2022-08-20T01:18:46;91683.19;;;22.22;58.58
20628;BME280;10473;42.734;24.258;2022-08-20T01:21:16;91684.50;;;22.39;58.53
20628;BME280;10473;42.734;24.258;2022-08-20T01:23:52;91686.06;;;22.49;57.27
20628;BME280;10473;42.734;24.258;2022-08-20T01:26:22;91693.25;;;22.52;57.34
20628;BME280;10473;42.734;24.258;2022-08-20T01:28:53;91688.47;;;22.56;57.37
20628;BME280;10473;42.734;24.258;2022-08-20T01:31:25;91685.22;;;22.39;57.40
20628;BME280;10473;42.734;24.258;2022-08-20T01:33:54;91684.47;;;22.60;57.29
20628;BME280;10473;42.734;24.258;2022-08-20T01:36:26;91701.00;;;22.71;57.12
20628;BME280;10473;42.734;24.258;2022-08-20T01:38:55;91691.09;;;22.68;57.32
20628;BME280;10473;42.734;24.258;2022-08-20T01:41:40;91697.88;;;22.73;56.90
20628;BME280;10473;42.734;24.258;2022-08-20T01:44:11;91689.91;;;22.78;57.04
20628;BME280;10473;42.734;24.258;2022-08-20T01:46:41;91683.91;;;22.74;56.80
20628;BME280;10473;42.734;24.258;2022-08-20T01:49:12;91683.91;;;22.74;56.71
20628;BME280;10473;42.734;24.258;2022-08-20T01:51:41;91681.03;;;22.69;56.97
20628;BME280;10473;42.734;24.258;2022-08-20T01:54:09;91669.75;;;22.61;56.46
20628;BME280;10473;42.734;24.258;2022-08-20T01:56:51;91669.91;;;22.58;56.63
20628;BME280;10473;42.734;24.258;2022-08-20T01:59:20;91672.13;;;22.59;56.57
20628;BME280;10473;42.734;24.258;2022-08-20T02:01:48;91676.03;;;22.58;56.28
20628;BME280;10473;42.734;24.258;2022-08-20T02:04:16;91664.19;;;22.56;56.25
20628;BME280;10473;42.734;24.258;2022-08-20T02:06:48;91672.28;;;22.56;56.39
20628;BME280;10473;42.734;24.258;2022-08-20T02:09:16;91678.59;;;22.53;57.05
20628;BME280;10473;42.734;24.258;2022-08-20T02:11:45;91680.03;;;22.45;57.59
20628;BME280;10473;42.734;24.258;2022-08-20T02:14:14;91671.06;;;22.48;57.31
20628;BME280;10473;42.734;24.258;2022-08-20T02:16:44;91675.56;;;22.51;57.42
20628;BME280;10473;42.734;24.258;2022-08-20T02:19:16;91668.03;;;22.46;57.78
20628;BME280;10473;42.734;24.258;2022-08-20T02:21:48;91671.81;;;22.48;57.55
20628;BME280;10473;42.734;24.258;2022-08-20T02:24:17;91671.06;;;22.48;57.62
20628;BME280;10473;42.734;24.258;2022-08-20T02:26:47;91660.50;;;22.41;57.21
20628;BME280;10473;42.734;24.258;2022-08-20T02:29:16;91667.97;;;22.37;57.55
20628;BME280;10473;42.734;24.258;2022-08-20T02:31:45;91663.00;;;22.35;57.66
20628;BME280;10473;42.734;24.258;2022-08-20T02:34:13;91667.22;;;22.36;57.94
20628;BME280;10473;42.734;24.258;2022-08-20T02:36:42;91664.53;;;22.36;57.72
20628;BME280;10473;42.734;24.258;2022-08-20T02:39:11;91670.19;;;22.29;57.75
20628;BME280;10473;42.734;24.258;2022-08-20T02:41:40;91667.63;;;22.26;57.94
20628;BME280;10473;42.734;24.258;2022-08-20T02:44:09;91664.63;;;22.33;57.99
20628;BME280;10473;42.734;24.258;2022-08-20T02:46:37;91657.44;;;22.30;58.07
20628;BME280;10473;42.734;24.258;2022-08-20T02:49:07;91656.38;;;22.27;58.04
20628;BME280;10473;42.734;24.258;2022-08-20T02:51:35;91660.88;;;22.30;58.22
20628;BME280;10473;42.734;24.258;2022-08-20T02:54:03;91651.47;;;22.35;57.98
20628;BME280;10473;42.734;24.258;2022-08-20T02:56:31;91618.09;;;22.20;58.09
20628;BME280;10473;42.734;24.258;2022-08-20T02:58:58;91644.09;;;22.26;58.27
20628;BME280;10473;42.734;24.258;2022-08-20T03:01:28;91644.69;;;22.30;58.50
20628;BME280;10473;42.734;24.258;2022-08-20T03:03:56;91648.72;;;22.26;58.03
20628;BME280;10473;42.734;24.258;2022-08-20T03:06:26;91654.13;;;22.26;58.57
20628;BME280;10473;42.734;24.258;2022-08-20T03:08:54;91646.13;;;22.13;58.69
20628;BME280;10473;42.734;24.258;2022-08-20T03:11:21;91644.75;;;22.09;59.28
20628;BME280;10473;42.734;24.258;2022-08-20T03:13:49;91652.38;;;22.10;59.16
20628;BME280;10473;42.734;24.258;2022-08-20T03:16:17;91650.66;;;21.95;59.91
20628;BME280;10473;42.734;24.258;2022-08-20T03:18:46;91654.03;;;22.08;59.37
20628;BME280;10473;42.734;24.258;2022-08-20T03:21:14;91663.31;;;22.07;59.34
20628;BME280;10473;42.734;24.258;2022-08-20T03:23:42;91658.06;;;22.03;59.44
20628;BME280;10473;42.734;24.258;2022-08-20T03:26:11;91659.56;;;22.04;59.57
20628;BME280;10473;42.734;24.258;2022-08-20T03:28:40;91659.25;;;22.02;59.79
20628;BME280;10473;42.734;24.258;2022-08-20T03:31:08;91642.38;;;21.89;59.76
20628;BME280;10473;42.734;24.258;2022-08-20T03:33:36;91657.06;;;22.10;59.58
20628;BME280;10473;42.734;24.258;2022-08-20T03:36:06;91658.69;;;22.07;59.62
20628;BME280;10473;42.734;24.258;2022-08-20T03:38:34;91658.06;;;22.03;59.74
20628;BME280;10473;42.734;24.258;2022-08-20T03:41:02;91654.91;;;22.05;59.77
20628;BME280;10473;42.734;24.258;2022-08-20T03:43:32;91662.38;;;22.01;60.13
20628;BME280;10473;42.734;24.258;2022-08-20T03:46:00;91664.22;;;22.04;60.62
20628;BME280;10473;42.734;24.258;2022-08-20T03:48:28;91667.22;;;22.06;60.45
20628;BME280;10473;42.734;24.258;2022-08-20T03:50:56;91662.44;;;22.10;60.57
20628;BME280;10473;42.734;24.258;2022-08-20T03:53:27;91654.66;;;22.12;60.58
20628;BME280;10473;42.734;24.258;2022-08-20T03:55:57;91657.06;;;22.10;60.47
20628;BME280;10473;42.734;24.258;2022-08-20T03:58:27;91656.16;;;22.13;60.37
20628;BME280;10473;42.734;24.258;2022-08-20T04:00:55;91659.31;;;22.11;60.50
20628;BME280;10473;42.734;24.258;2022-08-20T04:03:23;91662.03;;;22.20;60.26
20628;BME280;10473;42.734;24.258;2022-08-20T04:05:51;91659.47;;;22.17;60.64
20628;BME280;10473;42.734;24.258;2022-08-20T04:08:21;91657.69;;;22.23;60.67
20628;BME280;10473;42.734;24.258;2022-08-20T04:10:51;91654.16;;;22.35;59.97
20628;BME280;10473;42.734;24.258;2022-08-20T04:13:22;91653.72;;;22.36;60.49
20628;BME280;10473;42.734;24.258;2022-08-20T04:15:50;91651.31;;;22.38;60.47
20628;BME280;10473;42.734;24.258;2022-08-20T04:18:22;91653.03;;;22.45;60.88
20628;BME280;10473;42.734;24.258;2022-08-20T04:20:51;91653.69;;;22.58;60.46
20628;BME280;10473;42.734;24.258;2022-08-20T04:23:20;91663.94;;;22.72;59.54
20628;BME280;10473;42.734;24.258;2022-08-20T04:25:47;91661.88;;;22.85;59.29
20628;BME280;10473;42.734;24.258;2022-08-20T04:28:19;91666.56;;;23.02;59.07
20628;BME280;10473;42.734;24.258;2022-08-20T04:30:52;91668.44;;;23.23;58.36
20628;BME280;10473;42.734;24.258;2022-08-20T04:33:20;91664.69;;;23.39;58.70
20628;BME280;10473;42.734;24.258;2022-08-20T04:35:49;91675.22;;;23.64;57.51
20628;BME280;10473;42.734;24.258;2022-08-20T04:38:19;91673.25;;;23.82;57.82
20628;BME280;10473;42.734;24.258;2022-08-20T04:40:48;91674.31;;;24.03;58.67
20628;BME280;10473;42.734;24.258;2022-08-20T04:43:26;91674.25;;;24.30;58.25
20628;BME280;10473;42.734;24.258;2022-08-20T04:45:56;91670.13;;;24.52;58.78
20628;BME280;10473;42.734;24.258;2022-08-20T04:48:25;91665.41;;;24.71;57.68
20628;BME280;10473;42.734;24.258;2022-08-20T04:50:55;91675.50;;;25.03;58.89
20628;BME280;10473;42.734;24.258;2022-08-20T04:53:25;91652.19;;;25.29;56.80
20628;BME280;10473;42.734;24.258;2022-08-20T04:55:57;91654.97;;;25.58;57.76
20628;BME280;10473;42.734;24.258;2022-08-20T04:58:29;91664.41;;;25.86;56.99
20628;BME280;10473;42.734;24.258;2022-08-20T05:01:01;91660.53;;;26.16;56.24
20628;BME280;10473;42.734;24.258;2022-08-20T05:03:30;91666.25;;;26.47;54.79
20628;BME280;10473;42.734;24.258;2022-08-20T05:05:59;91665.75;;;26.78;56.00
20628;BME280;10473;42.734;24.258;2022-08-20T05:08:27;91667.75;;;27.12;54.58
20628;BME280;10473;42.734;24.258;2022-08-20T05:10:56;91668.16;;;27.39;52.49
20628;BME280;10473;42.734;24.258;2022-08-20T05:13:26;91664.75;;;27.44;53.30
20628;BME280;10473;42.734;24.258;2022-08-20T05:15:54;91670.63;;;27.57;50.42
20628;BME280;10473;42.734;24.258;2022-08-20T05:18:24;91657.59;;;27.47;49.71
20628;BME280;10473;42.734;24.258;2022-08-20T05:20:52;91658.78;;;27.60;50.81
20628;BME280;10473;42.734;24.258;2022-08-20T05:23:20;91650.97;;;27.88;50.32
20628;BME280;10473;42.734;24.258;2022-08-20T05:25:49;91672.06;;;28.18;49.72
20628;BME280;10473;42.734;24.258;2022-08-20T05:28:21;91657.81;;;28.29;51.33
20628;BME280;10473;42.734;24.258;2022-08-20T05:30:51;91675.25;;;28.62;52.79
20628;BME280;10473;42.734;24.258;2022-08-20T05:33:21;91676.41;;;28.81;52.08
20628;BME280;10473;42.734;24.258;2022-08-20T05:35:50;91673.66;;;29.12;50.66
20628;BME280;10473;42.734;24.258;2022-08-20T05:38:21;91673.63;;;29.43;49.89
20628;BME280;10473;42.734;24.258;2022-08-20T05:40:50;91678.78;;;29.72;46.12
20628;BME280;10473;42.734;24.258;2022-08-20T05:43:18;91672.91;;;29.96;46.85
20628;BME280;10473;42.734;24.258;2022-08-20T05:45:47;91680.47;;;30.28;47.52
20628;BME280;10473;42.734;24.258;2022-08-20T05:48:21;91678.25;;;30.43;42.51
20628;BME280;10473;42.734;24.258;2022-08-20T05:50:52;91686.25;;;30.63;44.19
20628;BME280;10473;42.734;24.258;2022-08-20T05:53:22;91678.34;;;30.87;44.06
20628;BME280;10473;42.734;24.258;2022-08-20T05:55:50;91676.81;;;31.08;42.06
20628;BME280;10473;42.734;24.258;2022-08-20T05:58:20;91676.34;;;31.26;42.35
20628;BME280;10473;42.734;24.258;2022-08-20T06:00:50;91663.91;;;31.25;40.86
20628;BME280;10473;42.734;24.258;2022-08-20T06:03:20;91666.34;;;31.34;40.21
20628;BME280;10473;42.734;24.258;2022-08-20T06:06:05;91664.34;;;31.51;43.52
20628;BME280;10473;42.734;24.258;2022-08-20T06:08:33;91667.84;;;31.46;43.13
20628;BME280;10473;42.734;24.258;2022-08-20T06:11:01;91667.53;;;31.77;41.72
20628;BME280;10473;42.734;24.258;2022-08-20T06:13:29;91669.34;;;31.47;41.12
20628;BME280;10473;42.734;24.258;2022-08-20T06:15:57;91660.13;;;31.12;42.03
20628;BME280;10473;42.734;24.258;2022-08-20T06:18:26;91664.16;;;30.83;43.38
20628;BME280;10473;42.734;24.258;2022-08-20T06:20:54;91659.16;;;29.79;43.64
20628;BME280;10473;42.734;24.258;2022-08-20T06:23:22;91666.69;;;30.06;44.74
20628;BME280;10473;42.734;24.258;2022-08-20T06:25:51;91670.59;;;30.64;43.63
20628;BME280;10473;42.734;24.258;2022-08-20T06:28:18;91661.88;;;29.74;42.68
20628;BME280;10473;42.734;24.258;2022-08-20T06:30:46;91659.44;;;29.39;44.40
20628;BME280;10473;42.734;24.258;2022-08-20T06:33:15;91650.25;;;29.42;45.60
20628;BME280;10473;42.734;24.258;2022-08-20T06:35:44;91655.72;;;29.42;43.95
20628;BME280;10473;42.734;24.258;2022-08-20T06:38:12;91636.56;;;28.95;45.40
20628;BME280;10473;42.734;24.258;2022-08-20T06:40:40;91650.88;;;29.15;44.69
20628;BME280;10473;42.734;24.258;2022-08-20T06:43:07;91652.06;;;29.09;44.21
20628;BME280;10473;42.734;24.258;2022-08-20T06:45:36;91640.09;;;29.43;44.79
20628;BME280;10473;42.734;24.258;2022-08-20T06:48:06;91659.25;;;29.48;42.84
20628;BME280;10473;42.734;24.258;2022-08-20T06:50:36;91664.63;;;29.79;43.79
20628;BME280;10473;42.734;24.258;2022-08-20T06:53:06;91656.47;;;29.85;42.23
20628;BME280;10473;42.734;24.258;2022-08-20T06:55:36;91641.63;;;29.49;42.24
20628;BME280;10473;42.734;24.258;2022-08-20T06:58:06;91660.56;;;29.58;41.94
20628;BME280;10473;42.734;24.258;2022-08-20T07:00:35;91660.09;;;29.65;43.02
20628;BME280;10473;42.734;24.258;2022-08-20T07:03:03;91666.09;;;29.69;43.96
20628;BME280;10473;42.734;24.258;2022-08-20T07:05:34;91661.09;;;29.62;42.41
20628;BME280;10473;42.734;24.258;2022-08-20T07:08:03;91664.88;;;28.97;43.17
20628;BME280;10473;42.734;24.258;2022-08-20T07:10:32;91663.91;;;28.69;44.22
20628;BME280;10473;42.734;24.258;2022-08-20T07:13:00;91672.00;;;28.89;45.29
20628;BME280;10473;42.734;24.258;2022-08-20T07:15:28;91666.53;;;28.89;44.44
20628;BME280;10473;42.734;24.258;2022-08-20T07:17:57;91674.47;;;29.18;44.20
20628;BME280;10473;42.734;24.258;2022-08-20T07:20:27;91674.47;;;29.60;45.20
20628;BME280;10473;42.734;24.258;2022-08-20T07:22:55;91673.88;;;29.45;43.86
20628;BME280;10473;42.734;24.258;2022-08-20T07:25:23;91671.47;;;29.16;43.45
20628;BME280;10473;42.734;24.258;2022-08-20T07:27:52;91662.97;;;29.03;44.48
20628;BME280;10473;42.734;24.258;2022-08-20T07:30:26;91654.97;;;29.00;44.19
20628;BME280;10473;42.734;24.258;2022-08-20T07:33:11;91651.47;;;28.68;45.43
20628;BME280;10473;42.734;24.258;2022-08-20T07:35:39;91639.44;;;28.49;45.71
20628;BME280;10473;42.734;24.258;2022-08-20T07:38:13;91647.97;;;28.62;45.79
20628;BME280;10473;42.734;24.258;2022-08-20T07:40:42;91656.81;;;28.83;45.28
20628;BME280;10473;42.734;24.258;2022-08-20T07:43:11;91658.00;;;28.76;45.21
20628;BME280;10473;42.734;24.258;2022-08-20T07:45:41;91656.63;;;28.61;46.16
20628;BME280;10473;42.734;24.258;2022-08-20T07:48:11;91653.56;;;28.79;45.42
20628;BME280;10473;42.734;24.258;2022-08-20T07:50:39;91655.84;;;29.17;44.28
20628;BME280;10473;42.734;24.258;2022-08-20T07:53:08;91658.47;;;29.00;44.90
20628;BME280;10473;42.734;24.258;2022-08-20T07:55:37;91656.06;;;29.55;44.41
20628;BME280;10473;42.734;24.258;2022-08-20T07:58:12;91651.03;;;29.43;45.75
20628;BME280;10473;42.734;24.258;2022-08-20T08:00:40;91653.41;;;29.72;43.92
20628;BME280;10473;42.734;24.258;2022-08-20T08:03:08;91649.47;;;29.78;44.95
20628;BME280;10473;42.734;24.258;2022-08-20T08:05:38;91647.72;;;29.75;44.94
20628;BME280;10473;42.734;24.258;2022-08-20T08:08:09;91641.69;;;30.19;42.80
20628;BME280;10473;42.734;24.258;2022-08-20T08:10:39;91644.50;;;30.68;43.48
20628;BME280;10473;42.734;24.258;2022-08-20T08:13:11;91637.28;;;30.93;43.85
20628;BME280;10473;42.734;24.258;2022-08-20T08:15:42;91635.03;;;31.02;41.82
20628;BME280;10473;42.734;24.258;2022-08-20T08:18:13;91629.25;;;31.17;41.10
20628;BME280;10473;42.734;24.258;2022-08-20T08:20:43;91622.25;;;31.43;41.87
20628;BME280;10473;42.734;24.258;2022-08-20T08:23:11;91623.56;;;30.43;41.75
20628;BME280;10473;42.734;24.258;2022-08-20T08:25:39;91617.84;;;30.58;42.26
20628;BME280;10473;42.734;24.258;2022-08-20T08:28:07;91617.06;;;30.35;42.00
20628;BME280;10473;42.734;24.258;2022-08-20T08:30:38;91613.63;;;30.51;43.09
20628;BME280;10473;42.734;24.258;2022-08-20T08:33:12;91607.16;;;30.54;41.68
20628;BME280;10473;42.734;24.258;2022-08-20T08:35:58;91610.13;;;30.45;42.50
20628;BME280;10473;42.734;24.258;2022-08-20T08:38:27;91602.09;;;30.03;43.71
20628;BME280;10473;42.734;24.258;2022-08-20T08:40:57;91606.16;;;30.46;42.46
20628;BME280;10473;42.734;24.258;2022-08-20T08:43:26;91599.16;;;30.23;41.69
20628;BME280;10473;42.734;24.258;2022-08-20T08:45:58;91608.38;;;30.15;43.93
20628;BME280;10473;42.734;24.258;2022-08-20T08:48:31;91602.16;;;30.25;43.41
20628;BME280;10473;42.734;24.258;2022-08-20T08:51:01;91608.28;;;30.04;44.45
20628;BME280;10473;42.734;24.258;2022-08-20T08:53:36;91599.69;;;30.27;46.25
20628;BME280;10473;42.734;24.258;2022-08-20T08:56:04;91604.66;;;30.45;44.38
20628;BME280;10473;42.734;24.258;2022-08-20T08:58:33;91596.72;;;30.47;44.67
20628;BME280;10473;42.734;24.258;2022-08-20T09:01:07;91592.94;;;30.12;44.28
20628;BME280;10473;42.734;24.258;2022-08-20T09:03:38;91596.13;;;30.10;44.72
20628;BME280;10473;42.734;24.258;2022-08-20T09:06:13;91597.19;;;30.18;45.04
20628;BME280;10473;42.734;24.258;2022-08-20T09:08:45;91593.81;;;29.81;44.81
20628;BME280;10473;42.734;24.258;2022-08-20T09:11:15;91597.25;;;29.65;45.29
20628;BME280;10473;42.734;24.258;2022-08-20T09:13:43;91593.00;;;29.59;46.57
20628;BME280;10473;42.734;24.258;2022-08-20T09:16:12;91590.13;;;29.84;46.32
20628;BME280;10473;42.734;24.258;2022-08-20T09:18:41;91597.59;;;29.89;44.32
20628;BME280;10473;42.734;24.258;2022-08-20T09:21:08;91594.09;;;29.83;44.92
20628;BME280;10473;42.734;24.258;2022-08-20T09:23:37;91593.94;;;29.50;44.86
20628;BME280;10473;42.734;24.258;2022-08-20T09:26:05;91598.50;;;29.64;44.22
20628;BME280;10473;42.734;24.258;2022-08-20T09:28:32;91597.16;;;29.43;46.58
20628;BME280;10473;42.734;24.258;2022-08-20T09:31:01;91588.63;;;29.83;46.57
20628;BME280;10473;42.734;24.258;2022-08-20T09:33:30;91599.66;;;30.33;45.72
20628;BME280;10473;42.734;24.258;2022-08-20T09:35:58;91599.19;;;30.56;44.33
20628;BME280;10473;42.734;24.258;2022-08-20T09:38:26;91594.72;;;30.42;44.88
20628;BME280;10473;42.734;24.258;2022-08-20T09:40:53;91592.38;;;29.91;45.09
20628;BME280;10473;42.734;24.258;2022-08-20T09:43:21;91595.69;;;30.28;43.53
20628;BME280;10473;42.734;24.258;2022-08-20T09:45:49;91589.97;;;30.43;44.23
20628;BME280;10473;42.734;24.258;2022-08-20T09:48:16;91576.03;;;30.63;44.47
20628;BME280;10473;42.734;24.258;2022-08-20T09:50:47;91590.72;;;30.54;43.22
20628;BME280;10473;42.734;24.258;2022-08-20T09:53:16;91598.72;;;30.69;43.97
20628;BME280;10473;42.734;24.258;2022-08-20T09:55:50;91598.22;;;30.70;43.22
20628;BME280;10473;42.734;24.258;2022-08-20T09:58:21;91587.50;;;31.00;42.14
20628;BME280;10473;42.734;24.258;2022-08-20T10:00:51;91587.50;;;31.00;42.62
20628;BME280;10473;42.734;24.258;2022-08-20T10:03:19;91587.00;;;30.79;41.46
20628;BME280;10473;42.734;24.258;2022-08-20T10:05:48;91579.56;;;30.80;42.69
20628;BME280;10473;42.734;24.258;2022-08-20T10:08:15;91586.03;;;30.88;42.79
20628;BME280;10473;42.734;24.258;2022-08-20T10:10:43;91590.97;;;31.06;42.12
20628;BME280;10473;42.734;24.258;2022-08-20T10:13:11;91594.47;;;30.90;41.79
20628;BME280;10473;42.734;24.258;2022-08-20T10:15:38;91591.44;;;31.26;41.77
20628;BME280;10473;42.734;24.258;2022-08-20T10:18:06;91578.19;;;31.47;42.77
20628;BME280;10473;42.734;24.258;2022-08-20T10:20:34;91584.31;;;31.69;40.15
20628;BME280;10473;42.734;24.258;2022-08-20T10:23:03;91576.94;;;31.42;40.30
20628;BME280;10473;42.734;24.258;2022-08-20T10:25:31;91575.81;;;31.73;40.84
20628;BME280;10473;42.734;24.258;2022-08-20T10:27:59;91576.13;;;31.64;41.39
20628;BME280;10473;42.734;24.258;2022-08-20T10:30:27;91567.28;;;31.30;41.76
20628;BME280;10473;42.734;24.258;2022-08-20T10:32:54;91574.47;;;31.33;41.79
20628;BME280;10473;42.734;24.258;2022-08-20T10:35:22;91569.06;;;31.06;40.20
20628;BME280;10473;42.734;24.258;2022-08-20T10:37:50;91568.88;;;30.49;40.62
20628;BME280;10473;42.734;24.258;2022-08-20T10:40:19;91568.38;;;30.72;41.53
20628;BME280;10473;42.734;24.258;2022-08-20T10:42:48;91568.78;;;31.09;40.55
20628;BME280;10473;42.734;24.258;2022-08-20T10:45:17;91548.56;;;31.40;41.24
20628;BME280;10473;42.734;24.258;2022-08-20T10:47:44;91565.00;;;31.34;39.74
20628;BME280;10473;42.734;24.258;2022-08-20T10:50:14;91568.00;;;31.31;39.89
20628;BME280;10473;42.734;24.258;2022-08-20T10:52:45;91566.41;;;31.63;40.99
20628;BME280;10473;42.734;24.258;2022-08-20T10:55:13;91563.78;;;31.92;41.16
20628;BME280;10473;42.734;24.258;2022-08-20T10:57:42;91562.41;;;32.15;38.68
20628;BME280;10473;42.734;24.258;2022-08-20T11:00:12;91557.31;;;32.36;38.88
20628;BME280;10473;42.734;24.258;2022-08-20T11:02:40;91553.34;;;32.31;37.98
20628;BME280;10473;42.734;24.258;2022-08-20T11:05:08;91551.84;;;32.60;41.53
20628;BME280;10473;42.734;24.258;2022-08-20T11:07:37;91548.34;;;32.94;39.89
20628;BME280;10473;42.734;24.258;2022-08-20T11:10:07;91550.78;;;33.22;38.24
20628;BME280;10473;42.734;24.258;2022-08-20T11:12:35;91543.41;;;33.35;37.61
20628;BME280;10473;42.734;24.258;2022-08-20T11:15:05;91553.56;;;33.46;36.85
20628;BME280;10473;42.734;24.258;2022-08-20T11:17:36;91539.31;;;33.47;35.93
20628;BME280;10473;42.734;24.258;2022-08-20T11:20:07;91543.31;;;33.22;36.89
20628;BME280;10473;42.734;24.258;2022-08-20T11:22:35;91540.72;;;33.06;36.85
20628;BME280;10473;42.734;24.258;2022-08-20T11:25:04;91539.25;;;32.75;36.05
20628;BME280;10473;42.734;24.258;2022-08-20T11:27:35;91538.38;;;32.62;36.47
20628;BME280;10473;42.734;24.258;2022-08-20T11:30:07;91532.63;;;31.95;37.96
20628;BME280;10473;42.734;24.258;2022-08-20T11:32:35;91532.00;;;31.67;38.94
20628;BME280;10473;42.734;24.258;2022-08-20T11:35:04;91529.38;;;31.97;38.19
20628;BME280;10473;42.734;24.258;2022-08-20T11:37:33;91528.53;;;32.07;38.12
20628;BME280;10473;42.734;24.258;2022-08-20T11:40:01;91537.06;;;31.98;36.62
20628;BME280;10473;42.734;24.258;2022-08-20T11:42:28;91525.28;;;32.09;37.40
20628;BME280;10473;42.734;24.258;2022-08-20T11:44:56;91522.53;;;32.14;38.17
20628;BME280;10473;42.734;24.258;2022-08-20T11:47:28;91517.56;;;32.07;38.00
20628;BME280;10473;42.734;24.258;2022-08-20T11:49:57;91513.81;;;32.45;37.48
20628;BME280;10473;42.734;24.258;2022-08-20T11:52:25;91512.13;;;32.66;34.18
20628;BME280;10473;42.734;24.258;2022-08-20T11:54:53;91503.09;;;32.71;33.81
20628;BME280;10473;42.734;24.258;2022-08-20T11:57:22;91501.78;;;32.19;35.37
20628;BME280;10473;42.734;24.258;2022-08-20T11:59:51;91497.50;;;31.88;35.55
20628;BME280;10473;42.734;24.258;2022-08-20T12:02:19;91499.34;;;31.69;36.84
20628;BME280;10473;42.734;24.258;2022-08-20T12:04:49;91494.53;;;31.35;37.96
20628;BME280;10473;42.734;24.258;2022-08-20T12:07:19;91490.59;;;31.19;38.43
20628;BME280;10473;42.734;24.258;2022-08-20T12:09:47;91493.34;;;31.25;38.13
20628;BME280;10473;42.734;24.258;2022-08-20T12:12:15;91488.75;;;30.81;38.20
20628;BME280;10473;42.734;24.258;2022-08-20T12:14:44;91489.97;;;30.86;38.10
20628;BME280;10473;42.734;24.258;2022-08-20T12:17:14;91484.66;;;31.10;38.15
20628;BME280;10473;42.734;24.258;2022-08-20T12:19:43;91490.59;;;31.30;36.86
20628;BME280;10473;42.734;24.258;2022-08-20T12:22:12;91482.44;;;31.65;37.79
20628;BME280;10473;42.734;24.258;2022-08-20T12:24:40;91487.78;;;31.87;37.56
20628;BME280;10473;42.734;24.258;2022-08-20T12:27:09;91493.41;;;32.06;36.41
20628;BME280;10473;42.734;24.258;2022-08-20T12:29:37;91489.22;;;31.99;37.45
20628;BME280;10473;42.734;24.258;2022-08-20T12:32:06;91488.19;;;32.02;37.55
20628;BME280;10473;42.734;24.258;2022-08-20T12:34:34;91484.78;;;32.26;38.61
20628;BME280;10473;42.734;24.258;2022-08-20T12:37:04;91480.09;;;32.21;36.71
20628;BME280;10473;42.734;24.258;2022-08-20T12:39:34;91468.56;;;31.93;36.94
20628;BME280;10473;42.734;24.258;2022-08-20T12:42:04;91470.66;;;31.76;36.33
20628;BME280;10473;42.734;24.258;2022-08-20T12:44:32;91472.22;;;32.06;36.37
20628;BME280;10473;42.734;24.258;2022-08-20T12:47:08;91470.09;;;32.23;36.30
20628;BME280;10473;42.734;24.258;2022-08-20T12:49:37;91466.53;;;31.99;36.60
20628;BME280;10473;42.734;24.258;2022-08-20T12:52:06;91466.16;;;31.32;37.54
20628;BME280;10473;42.734;24.258;2022-08-20T12:54:35;91475.19;;;31.16;37.45
20628;BME280;10473;42.734;24.258;2022-08-20T12:57:04;91468.19;;;31.26;37.57
20628;BME280;10473;42.734;24.258;2022-08-20T12:59:32;91459.72;;;31.30;36.84
20628;BME280;10473;42.734;24.258;2022-08-20T13:02:00;91461.53;;;31.62;37.25
20628;BME280;10473;42.734;24.258;2022-08-20T13:04:27;91465.63;;;31.85;37.12